ADDS METAR Data INFO
IDs: Format: Raw Decoded Include TAF

Data at: 0154 UTC 18 Oct 2017

METAR for:GCLA (La Palma Arpt, --, CR)
Text:GCLA 180130Z AUTO 30004KT 260V340 9999 NCD 21/15 Q1024
Temperature: 21.0°C ( 70°F)
Dewpoint: 15.0°C ( 59°F) [RH = 69%]
Pressure (altimeter):30.24 inches Hg (1024.0 mb)
Winds:from the WNW (300 degrees) at 5 MPH (4 knots; 2.1 m/s)
Visibility:6 or more sm (10+ km)
Ceiling:at least 12,000 feet AGL
Clouds:sky clear below 12,000 feet AGL